createdAt,value
2019-02-25T00:00:10.056Z,997.59
2019-02-25T00:01:10.293Z,997.58
2019-02-25T00:03:14.467Z,997.59
2019-02-25T00:04:14.703Z,997.62
2019-02-25T00:06:18.869Z,997.59
2019-02-25T00:07:19.105Z,997.61
2019-02-25T00:09:23.275Z,997.67
2019-02-25T00:10:23.510Z,997.64
2019-02-25T00:12:27.658Z,997.63
2019-02-25T00:13:27.899Z,997.63
2019-02-25T00:15:32.063Z,997.65
2019-02-25T00:16:32.301Z,997.65
2019-02-25T00:18:25.401Z,997.65
2019-02-25T00:19:25.637Z,997.61
2019-02-25T00:21:29.809Z,997.64
2019-02-25T00:22:30.048Z,997.70
2019-02-25T00:24:34.220Z,997.75
2019-02-25T00:25:34.454Z,997.74
2019-02-25T00:27:38.613Z,997.77
2019-02-25T00:28:38.832Z,997.79
2019-02-25T00:30:42.999Z,997.67
2019-02-25T00:31:43.237Z,997.62
2019-02-25T00:33:47.382Z,997.62
2019-02-25T00:34:47.619Z,997.57
2019-02-25T00:36:51.788Z,997.60
2019-02-25T00:37:52.026Z,997.55
2019-02-25T00:39:56.194Z,997.52
2019-02-25T00:40:56.430Z,997.52
2019-02-25T00:43:00.591Z,997.53
2019-02-25T00:44:00.824Z,997.56
2019-02-25T00:46:05.005Z,997.55
2019-02-25T00:47:05.239Z,997.54
2019-02-25T00:49:09.385Z,997.53
2019-02-25T00:50:09.624Z,997.54
2019-02-25T00:52:13.792Z,997.59
2019-02-25T00:53:14.032Z,997.55
2019-02-25T00:55:18.197Z,997.62
2019-02-25T00:56:18.435Z,997.61
2019-02-25T00:58:11.510Z,997.61
2019-02-25T00:59:11.747Z,997.58
2019-02-25T01:01:15.919Z,997.64
2019-02-25T01:02:16.158Z,997.60
2019-02-25T01:04:20.304Z,997.60
2019-02-25T01:05:20.542Z,997.59
2019-02-25T01:07:24.709Z,997.57
2019-02-25T01:08:24.946Z,997.57
2019-02-25T01:10:29.114Z,997.53
2019-02-25T01:11:29.404Z,997.51
2019-02-25T01:13:33.499Z,997.52
2019-02-25T01:14:33.736Z,997.49
2019-02-25T01:16:37.899Z,997.48
2019-02-25T01:17:38.139Z,997.43
2019-02-25T01:19:42.286Z,997.42
2019-02-25T01:20:42.530Z,997.39
2019-02-25T01:22:46.708Z,997.34
2019-02-25T01:23:48.901Z,997.35
2019-02-25T01:25:51.112Z,997.35
2019-02-25T01:26:51.347Z,997.37
2019-02-25T01:28:55.494Z,997.43
2019-02-25T01:29:55.731Z,997.43
2019-02-25T01:31:59.903Z,997.46
2019-02-25T01:33:00.139Z,997.44
2019-02-25T01:35:04.283Z,997.43
2019-02-25T01:36:04.520Z,997.47
2019-02-25T01:37:57.615Z,997.40
2019-02-25T01:38:57.855Z,997.40
2019-02-25T01:41:02.016Z,997.42
2019-02-25T01:42:02.259Z,997.42
2019-02-25T01:44:07.407Z,997.40
2019-02-25T01:45:07.652Z,997.41
2019-02-25T01:47:11.816Z,997.35
2019-02-25T01:48:12.051Z,997.32
2019-02-25T01:50:16.208Z,997.29
2019-02-25T01:51:16.445Z,997.34
2019-02-25T01:53:20.613Z,997.32
2019-02-25T01:54:20.847Z,997.39
2019-02-25T01:56:25.013Z,997.37
2019-02-25T01:57:25.249Z,997.33
2019-02-25T01:59:29.395Z,997.27
2019-02-25T02:00:29.630Z,997.22
2019-02-25T02:02:33.803Z,997.19
2019-02-25T02:03:34.039Z,997.14
2019-02-25T02:05:38.186Z,997.10
2019-02-25T02:06:38.424Z,997.11
2019-02-25T02:08:42.593Z,997.11
2019-02-25T02:09:42.830Z,997.13
2019-02-25T02:11:46.999Z,997.11
2019-02-25T02:12:47.235Z,997.12
2019-02-25T02:14:51.378Z,997.09
2019-02-25T02:15:51.615Z,997.14
2019-02-25T02:17:44.710Z,997.13
2019-02-25T02:18:44.947Z,997.10
2019-02-25T02:20:49.092Z,997.15
2019-02-25T02:21:49.326Z,997.18
2019-02-25T02:23:53.490Z,997.20
2019-02-25T02:24:53.731Z,997.20
2019-02-25T02:26:57.897Z,997.19
2019-02-25T02:27:58.133Z,997.13
2019-02-25T02:30:02.281Z,997.14
2019-02-25T02:31:02.512Z,997.14
2019-02-25T02:33:06.681Z,997.12
2019-02-25T02:34:06.916Z,997.13
2019-02-25T02:36:11.823Z,997.15
2019-02-25T02:37:11.318Z,997.19
2019-02-25T02:39:15.487Z,997.21
2019-02-25T02:40:15.750Z,997.20
2019-02-25T02:42:19.895Z,997.18
2019-02-25T02:43:20.125Z,997.15
2019-02-25T02:45:24.271Z,997.12
2019-02-25T02:46:24.515Z,997.11
2019-02-25T02:48:17.609Z,997.08
2019-02-25T02:49:17.843Z,997.06
2019-02-25T02:51:21.989Z,997.06
2019-02-25T02:52:22.226Z,997.04
2019-02-25T02:54:26.400Z,997.01
2019-02-25T02:55:26.637Z,997.01
2019-02-25T02:57:30.803Z,996.99
2019-02-25T02:58:31.037Z,996.96
2019-02-25T03:00:36.193Z,997.00
2019-02-25T03:01:36.430Z,997.02
2019-02-25T03:03:40.596Z,997.04
2019-02-25T03:04:40.836Z,997.03
2019-02-25T03:06:44.984Z,997.04
2019-02-25T03:07:45.217Z,997.01
2019-02-25T03:09:49.379Z,996.98
2019-02-25T03:10:49.615Z,997.01
2019-02-25T03:12:53.782Z,997.04
2019-02-25T03:13:54.025Z,997.00
2019-02-25T03:15:58.161Z,997.03
2019-02-25T03:16:58.398Z,997.09
2019-02-25T03:19:02.565Z,997.14
2019-02-25T03:20:02.804Z,997.12
2019-02-25T03:22:06.945Z,997.17
2019-02-25T03:23:07.181Z,997.15
2019-02-25T03:25:11.349Z,997.19
2019-02-25T03:26:11.582Z,997.20
2019-02-25T03:28:04.682Z,997.20
2019-02-25T03:29:04.915Z,997.22
2019-02-25T03:31:09.064Z,997.19
2019-02-25T03:32:09.297Z,997.17
2019-02-25T03:34:13.479Z,997.12
2019-02-25T03:35:13.700Z,997.17
2019-02-25T03:37:17.855Z,997.16
2019-02-25T03:38:18.088Z,997.19
2019-02-25T03:40:22.253Z,997.24
2019-02-25T03:41:22.488Z,997.21
2019-02-25T03:43:26.659Z,997.18
2019-02-25T03:44:26.895Z,997.19
2019-02-25T03:46:31.040Z,997.20
2019-02-25T03:47:31.277Z,997.22
2019-02-25T03:49:35.468Z,997.21
2019-02-25T03:50:35.692Z,997.24
2019-02-25T03:52:39.824Z,997.21
2019-02-25T03:53:40.063Z,997.25
2019-02-25T03:55:44.237Z,997.23
2019-02-25T03:56:44.464Z,997.23
2019-02-25T03:58:48.634Z,997.24
2019-02-25T03:59:48.870Z,997.23
2019-02-25T04:01:53.014Z,997.28
2019-02-25T04:02:53.251Z,997.27
2019-02-25T04:04:57.417Z,997.24
2019-02-25T04:05:57.652Z,997.23
2019-02-25T04:07:51.736Z,997.23
2019-02-25T04:08:51.970Z,997.25
2019-02-25T04:10:56.139Z,997.30
2019-02-25T04:11:56.373Z,997.38
2019-02-25T04:14:00.542Z,997.44
2019-02-25T04:15:00.776Z,997.37
2019-02-25T04:17:04.920Z,997.35
2019-02-25T04:18:05.154Z,997.39
2019-02-25T04:20:09.321Z,997.37
2019-02-25T04:21:09.559Z,997.41
2019-02-25T04:23:13.704Z,997.41
2019-02-25T04:24:13.938Z,997.47
2019-02-25T04:26:18.110Z,997.37
2019-02-25T04:27:18.347Z,997.40
2019-02-25T04:29:22.512Z,997.39
2019-02-25T04:30:22.750Z,997.38
2019-02-25T04:32:26.902Z,997.30
2019-02-25T04:33:27.128Z,997.25
2019-02-25T04:35:31.302Z,997.24
2019-02-25T04:36:31.531Z,997.23
2019-02-25T04:38:24.603Z,997.27
2019-02-25T04:39:24.839Z,997.26
2019-02-25T04:41:29.008Z,997.20
2019-02-25T04:42:29.245Z,997.20
2019-02-25T04:44:33.410Z,997.15
2019-02-25T04:45:33.650Z,997.14
2019-02-25T04:47:37.792Z,997.11
2019-02-25T04:48:38.030Z,997.12
2019-02-25T04:50:42.192Z,997.09
2019-02-25T04:51:42.434Z,997.15
2019-02-25T04:53:46.591Z,997.14
2019-02-25T04:54:46.809Z,997.13
2019-02-25T04:56:50.987Z,997.14
2019-02-25T04:57:51.220Z,997.16
2019-02-25T04:59:55.364Z,997.20
2019-02-25T05:00:55.600Z,997.19
2019-02-25T05:02:59.764Z,997.19
2019-02-25T05:04:00.001Z,997.16
2019-02-25T05:06:04.166Z,997.18
2019-02-25T05:07:04.395Z,997.19
2019-02-25T05:09:08.536Z,997.16
2019-02-25T05:10:08.773Z,997.14
2019-02-25T05:12:12.965Z,997.18
2019-02-25T05:13:13.210Z,997.21
2019-02-25T05:15:17.401Z,997.22
2019-02-25T05:16:17.637Z,997.22
2019-02-25T05:18:10.723Z,997.24
2019-02-25T05:19:10.961Z,997.25
2019-02-25T05:21:15.145Z,997.25
2019-02-25T05:22:15.376Z,997.20
2019-02-25T05:24:19.518Z,997.16
2019-02-25T05:25:19.756Z,997.17
2019-02-25T05:27:23.934Z,997.17
2019-02-25T05:28:24.177Z,997.19
2019-02-25T05:30:28.323Z,997.16
2019-02-25T05:31:28.565Z,997.11
2019-02-25T05:33:33.751Z,997.17
2019-02-25T05:34:33.993Z,997.21
2019-02-25T05:36:38.175Z,997.23
2019-02-25T05:37:38.414Z,997.25
2019-02-25T05:39:42.568Z,997.27
2019-02-25T05:40:42.814Z,997.27
2019-02-25T05:42:46.991Z,997.28
2019-02-25T05:43:47.227Z,997.23
2019-02-25T05:45:51.369Z,997.24
2019-02-25T05:46:51.615Z,997.24
2019-02-25T05:48:55.781Z,997.28
2019-02-25T05:49:56.023Z,997.33
2019-02-25T05:52:00.198Z,997.34
2019-02-25T05:53:00.440Z,997.38
2019-02-25T05:55:04.591Z,997.31
2019-02-25T05:56:04.826Z,997.36
2019-02-25T05:57:57.941Z,997.35
2019-02-25T05:58:58.175Z,997.32
2019-02-25T06:01:02.326Z,997.36
2019-02-25T06:02:02.566Z,997.37
2019-02-25T06:04:06.741Z,997.37
2019-02-25T06:05:06.983Z,997.32
2019-02-25T06:07:11.192Z,997.33
2019-02-25T06:08:11.419Z,997.34
2019-02-25T06:10:15.566Z,997.40
2019-02-25T06:11:15.805Z,997.36
2019-02-25T06:13:19.976Z,997.33
2019-02-25T06:14:20.222Z,997.36
2019-02-25T06:16:24.367Z,997.30
2019-02-25T06:17:24.656Z,997.36
2019-02-25T06:19:28.789Z,997.33
2019-02-25T06:20:29.022Z,997.30
2019-02-25T06:22:33.201Z,997.36
2019-02-25T06:23:33.446Z,997.40
2019-02-25T06:25:37.643Z,997.37
2019-02-25T06:26:38.712Z,997.34
2019-02-25T06:28:42.039Z,997.40
2019-02-25T06:29:42.275Z,997.37
2019-02-25T06:31:46.418Z,997.44
2019-02-25T06:32:46.652Z,997.43
2019-02-25T06:34:50.815Z,997.42
2019-02-25T06:35:51.051Z,997.49
2019-02-25T06:37:44.228Z,997.48
2019-02-25T06:38:44.385Z,997.46
2019-02-25T06:40:48.529Z,997.45
2019-02-25T06:41:48.774Z,997.49
2019-02-25T06:43:52.932Z,997.49
2019-02-25T06:44:53.169Z,997.49
2019-02-25T06:46:57.309Z,997.56
2019-02-25T06:47:57.550Z,997.60
2019-02-25T06:50:01.708Z,997.63
2019-02-25T06:51:01.945Z,997.64
2019-02-25T06:53:06.112Z,997.66
2019-02-25T06:54:06.355Z,997.71
2019-02-25T06:56:10.501Z,997.77
2019-02-25T06:57:10.733Z,997.78
2019-02-25T06:59:14.899Z,997.90
2019-02-25T07:00:15.133Z,998.00
2019-02-25T07:02:19.282Z,998.09
2019-02-25T07:03:19.518Z,998.06
2019-02-25T07:05:23.683Z,998.09
2019-02-25T07:06:23.915Z,998.11
2019-02-25T07:08:17.010Z,998.13
2019-02-25T07:09:17.259Z,998.18
2019-02-25T07:11:21.403Z,998.19
2019-02-25T07:12:21.642Z,998.24
2019-02-25T07:14:25.825Z,998.26
2019-02-25T07:15:26.067Z,998.27
2019-02-25T07:17:30.210Z,998.33
2019-02-25T07:18:30.455Z,998.29
2019-02-25T07:20:34.643Z,998.32
2019-02-25T07:21:34.881Z,998.33
2019-02-25T07:23:39.072Z,998.30
2019-02-25T07:24:39.314Z,998.35
2019-02-25T07:26:43.468Z,998.44
2019-02-25T07:27:43.707Z,998.46
2019-02-25T07:29:47.896Z,998.56
2019-02-25T07:30:48.141Z,998.66
2019-02-25T07:32:52.299Z,999.00
2019-02-25T07:33:52.539Z,999.38
2019-02-25T07:35:56.734Z,1001.24
2019-02-25T07:36:56.983Z,1001.91
2019-02-25T07:39:01.162Z,1002.35
2019-02-25T07:40:01.406Z,1004.18
2019-02-25T07:42:05.564Z,1001.34
2019-02-25T07:43:05.805Z,1000.45
2019-02-25T07:45:09.984Z,999.86
2019-02-25T07:46:10.233Z,999.67
2019-02-25T07:48:03.322Z,999.36
2019-02-25T07:49:03.567Z,999.40
2019-02-25T07:51:07.762Z,999.38
2019-02-25T07:52:08.008Z,999.30
2019-02-25T07:54:12.200Z,999.30
2019-02-25T07:55:12.446Z,999.26
2019-02-25T07:57:16.614Z,999.24
2019-02-25T07:58:16.860Z,999.31
2019-02-25T08:00:21.050Z,999.28
2019-02-25T08:01:21.295Z,999.33
2019-02-25T08:03:25.461Z,999.36
2019-02-25T08:04:25.709Z,999.33
2019-02-25T08:06:29.909Z,999.32
2019-02-25T08:07:30.155Z,999.38
2019-02-25T08:09:34.361Z,999.41
2019-02-25T08:10:34.611Z,999.38
2019-02-25T08:12:38.775Z,999.50
2019-02-25T08:13:39.027Z,999.70
2019-02-25T08:15:43.224Z,999.65
2019-02-25T08:16:43.469Z,999.49
2019-02-25T08:18:47.638Z,999.25
2019-02-25T08:19:47.887Z,999.24
2019-02-25T08:21:52.087Z,999.25
2019-02-25T08:22:52.334Z,999.30
2019-02-25T08:24:56.575Z,999.81
2019-02-25T08:25:56.824Z,1000.30
2019-02-25T08:27:49.930Z,1000.56
2019-02-25T08:28:50.179Z,1000.73
2019-02-25T08:30:54.383Z,1000.95
2019-02-25T08:31:54.631Z,1001.05
2019-02-25T08:33:58.800Z,1001.06
2019-02-25T08:34:59.062Z,1001.14
2019-02-25T08:37:03.277Z,1001.14
2019-02-25T08:38:03.527Z,1001.15
2019-02-25T08:40:07.694Z,1001.19
2019-02-25T08:41:07.943Z,1001.16
2019-02-25T08:43:12.148Z,1001.10
2019-02-25T08:44:12.395Z,1000.96
2019-02-25T08:46:16.576Z,1000.90
2019-02-25T08:47:16.826Z,1000.81
2019-02-25T08:49:21.001Z,1000.70
2019-02-25T08:50:21.249Z,1000.66
2019-02-25T08:52:25.447Z,1000.56
2019-02-25T08:53:25.696Z,1000.51
2019-02-25T08:55:29.875Z,1000.42
2019-02-25T08:56:30.124Z,1000.42
2019-02-25T08:58:23.247Z,1000.51
2019-02-25T08:59:23.507Z,1000.49
2019-02-25T09:01:27.695Z,1000.48
2019-02-25T09:02:27.948Z,1000.50
2019-02-25T09:04:32.123Z,1000.39
2019-02-25T09:05:32.373Z,1000.34
2019-02-25T09:07:36.570Z,1000.35
2019-02-25T09:08:36.826Z,1000.36
2019-02-25T09:10:41.000Z,1000.40
2019-02-25T09:11:41.255Z,1000.33
2019-02-25T09:13:45.450Z,1000.34
2019-02-25T09:14:45.702Z,1000.36
2019-02-25T09:16:49.898Z,1000.25
2019-02-25T09:17:50.148Z,1000.24
2019-02-25T09:19:54.337Z,1000.26
2019-02-25T09:20:54.591Z,1000.24
2019-02-25T09:22:58.791Z,1000.21
2019-02-25T09:23:59.045Z,1000.20
2019-02-25T09:26:03.222Z,1000.31
2019-02-25T09:27:03.472Z,1000.44
2019-02-25T09:29:07.675Z,1000.42
2019-02-25T09:30:07.929Z,1000.07
2019-02-25T09:32:12.126Z,999.47
2019-02-25T09:33:12.381Z,999.42
2019-02-25T09:35:16.557Z,999.41
2019-02-25T09:36:16.809Z,999.40
2019-02-25T09:38:09.939Z,999.38
2019-02-25T09:39:10.195Z,999.34
2019-02-25T09:41:14.372Z,999.38
2019-02-25T09:42:14.625Z,999.37
2019-02-25T09:44:18.832Z,999.35
2019-02-25T09:45:19.087Z,999.36
2019-02-25T09:47:23.295Z,999.32
2019-02-25T09:48:23.552Z,999.31
2019-02-25T09:50:27.746Z,999.24
2019-02-25T09:51:27.991Z,999.26
2019-02-25T09:53:32.195Z,999.27
2019-02-25T09:54:32.447Z,999.28
2019-02-25T09:56:37.410Z,999.41
2019-02-25T09:57:36.888Z,999.86
2019-02-25T09:59:41.097Z,999.95
2019-02-25T10:00:41.352Z,999.98
2019-02-25T10:02:45.568Z,1000.05
2019-02-25T10:03:45.821Z,1000.01
2019-02-25T10:05:50.011Z,999.97
2019-02-25T10:06:50.264Z,999.95
2019-02-25T10:08:54.473Z,999.89
2019-02-25T10:09:54.732Z,999.93
2019-02-25T10:11:58.938Z,999.92
2019-02-25T10:12:59.199Z,999.90
2019-02-25T10:15:05.094Z,999.93
2019-02-25T10:16:03.640Z,999.94
2019-02-25T10:17:56.779Z,999.90
2019-02-25T10:18:57.033Z,999.92
2019-02-25T10:21:01.220Z,999.96
2019-02-25T10:22:01.476Z,999.97
2019-02-25T10:24:05.688Z,999.99
2019-02-25T10:25:05.944Z,999.96
2019-02-25T10:27:10.131Z,999.93
2019-02-25T10:28:10.389Z,999.96
2019-02-25T10:30:14.602Z,999.93
2019-02-25T10:31:15.368Z,999.90
2019-02-25T10:33:19.065Z,999.87
2019-02-25T10:34:19.326Z,999.82
2019-02-25T10:36:23.514Z,999.80
2019-02-25T10:37:23.773Z,999.76
2019-02-25T10:39:27.985Z,999.82
2019-02-25T10:40:28.242Z,999.83
2019-02-25T10:42:33.472Z,999.78
2019-02-25T10:43:34.553Z,999.77
2019-02-25T10:45:38.903Z,999.74
2019-02-25T10:46:39.029Z,999.74
2019-02-25T10:48:41.367Z,999.76
2019-02-25T10:49:41.625Z,999.75
2019-02-25T10:51:45.821Z,999.76
2019-02-25T10:52:47.644Z,999.79
2019-02-25T10:54:51.990Z,999.79
2019-02-25T10:55:50.872Z,999.80
2019-02-25T10:57:43.663Z,999.81
2019-02-25T10:58:43.920Z,999.75
2019-02-25T11:00:48.133Z,999.74
2019-02-25T11:01:48.391Z,999.77
2019-02-25T11:03:54.247Z,999.79
2019-02-25T11:04:53.572Z,999.76
2019-02-25T11:06:58.539Z,999.71
2019-02-25T11:07:57.310Z,999.70
2019-02-25T11:10:01.522Z,999.72
2019-02-25T11:11:01.779Z,999.69
2019-02-25T11:13:06.001Z,999.69
2019-02-25T11:14:07.257Z,999.54
2019-02-25T11:16:11.945Z,999.53
2019-02-25T11:17:10.701Z,999.55
2019-02-25T11:19:14.922Z,999.55
2019-02-25T11:20:15.175Z,999.51
2019-02-25T11:22:19.364Z,999.53
2019-02-25T11:23:21.525Z,999.46
2019-02-25T11:25:25.757Z,999.50
2019-02-25T11:26:26.119Z,999.48
2019-02-25T11:28:25.629Z,999.46
2019-02-25T11:29:17.490Z,999.46
2019-02-25T11:31:24.038Z,999.41
2019-02-25T11:32:23.784Z,999.37
2019-02-25T11:34:26.153Z,999.38
2019-02-25T11:35:26.414Z,999.35
2019-02-25T11:37:30.609Z,999.31
2019-02-25T11:38:34.290Z,999.31
2019-02-25T11:40:36.557Z,999.24
2019-02-25T11:41:37.121Z,999.23
2019-02-25T11:43:39.551Z,999.22
2019-02-25T11:44:39.809Z,999.17
2019-02-25T11:46:44.003Z,999.11
2019-02-25T11:47:44.260Z,999.05
2019-02-25T11:49:48.470Z,998.83
2019-02-25T11:50:48.727Z,998.80
2019-02-25T11:52:52.924Z,998.74
2019-02-25T11:53:53.185Z,998.73
2019-02-25T11:55:57.401Z,998.70
2019-02-25T11:56:57.659Z,998.74
2019-02-25T11:59:01.872Z,998.76
2019-02-25T12:00:02.132Z,998.73
2019-02-25T12:02:06.322Z,998.74
2019-02-25T12:03:06.586Z,998.68
2019-02-25T12:05:10.795Z,998.66
2019-02-25T12:06:11.047Z,998.65
2019-02-25T12:08:04.175Z,998.58
2019-02-25T12:09:04.442Z,998.56
2019-02-25T12:11:08.749Z,998.52
2019-02-25T12:12:08.911Z,998.51
2019-02-25T12:14:13.129Z,998.40
2019-02-25T12:15:13.388Z,998.39
2019-02-25T12:17:17.580Z,998.36
2019-02-25T12:18:17.839Z,998.40
2019-02-25T12:20:22.048Z,998.31
2019-02-25T12:21:22.307Z,998.27
2019-02-25T12:23:26.500Z,998.24
2019-02-25T12:24:26.756Z,998.19
2019-02-25T12:26:30.969Z,998.18
2019-02-25T12:27:31.229Z,998.13
2019-02-25T12:29:35.502Z,998.15
2019-02-25T12:30:35.697Z,998.14
2019-02-25T12:32:39.890Z,998.07
2019-02-25T12:33:40.145Z,998.07
2019-02-25T12:35:44.366Z,997.99
2019-02-25T12:36:44.628Z,997.93
2019-02-25T12:38:48.818Z,997.91
2019-02-25T12:39:49.076Z,997.90
2019-02-25T12:41:53.287Z,997.85
2019-02-25T12:42:53.547Z,997.83
2019-02-25T12:44:57.756Z,997.81
2019-02-25T12:45:58.014Z,997.77
2019-02-25T12:47:51.130Z,997.77
2019-02-25T12:48:51.397Z,997.73
2019-02-25T12:50:55.597Z,997.68
2019-02-25T12:51:55.856Z,997.66
2019-02-25T12:54:00.041Z,997.69
2019-02-25T12:55:00.344Z,997.66
2019-02-25T12:57:04.503Z,997.61
2019-02-25T12:58:04.761Z,997.57
2019-02-25T13:00:08.971Z,997.48
2019-02-25T13:01:09.227Z,997.41
2019-02-25T13:03:13.416Z,997.28
2019-02-25T13:04:13.671Z,997.21
2019-02-25T13:06:17.881Z,997.14
2019-02-25T13:07:18.141Z,997.12
2019-02-25T13:09:22.333Z,997.10
2019-02-25T13:10:22.589Z,997.10
2019-02-25T13:12:26.798Z,997.19
2019-02-25T13:13:27.055Z,997.20
2019-02-25T13:15:31.266Z,997.10
2019-02-25T13:16:31.521Z,997.08
2019-02-25T13:18:24.642Z,997.07
2019-02-25T13:19:24.898Z,997.02
2019-02-25T13:21:29.105Z,996.97
2019-02-25T13:22:29.365Z,996.93
2019-02-25T13:24:35.198Z,996.95
2019-02-25T13:25:33.809Z,996.91
2019-02-25T13:27:38.020Z,996.83
2019-02-25T13:28:38.279Z,996.77
2019-02-25T13:30:42.489Z,996.74
2019-02-25T13:31:42.747Z,996.74
2019-02-25T13:33:46.957Z,996.76
2019-02-25T13:34:47.216Z,996.75
2019-02-25T13:36:51.435Z,996.76
2019-02-25T13:37:51.691Z,996.73
2019-02-25T13:39:55.881Z,996.72
2019-02-25T13:40:56.140Z,996.65
2019-02-25T13:43:00.365Z,996.69
2019-02-25T13:44:00.633Z,996.69
2019-02-25T13:46:04.858Z,996.71
2019-02-25T13:47:05.107Z,996.69
2019-02-25T13:49:10.314Z,996.77
2019-02-25T13:50:10.573Z,996.74
2019-02-25T13:52:14.839Z,996.77
2019-02-25T13:53:15.088Z,996.78
2019-02-25T13:55:19.278Z,996.69
2019-02-25T13:56:19.585Z,996.66
2019-02-25T13:58:12.764Z,996.62
2019-02-25T13:59:13.062Z,996.58
2019-02-25T14:01:17.399Z,996.55
2019-02-25T14:02:17.677Z,996.56
2019-02-25T14:04:21.879Z,996.48
2019-02-25T14:05:22.171Z,996.43
2019-02-25T14:07:26.374Z,996.43
2019-02-25T14:08:26.664Z,996.48
2019-02-25T14:10:30.850Z,996.45
2019-02-25T14:11:31.103Z,996.42
2019-02-25T14:13:35.386Z,996.33
2019-02-25T14:14:35.675Z,996.36
2019-02-25T14:16:39.879Z,996.37
2019-02-25T14:17:40.208Z,996.40
2019-02-25T14:19:44.389Z,996.38
2019-02-25T14:20:44.691Z,996.40
2019-02-25T14:22:48.946Z,996.41
2019-02-25T14:23:49.195Z,996.47
2019-02-25T14:25:53.396Z,996.48
2019-02-25T14:26:54.541Z,996.49
2019-02-25T14:28:57.847Z,996.44
2019-02-25T14:29:58.100Z,996.46
2019-02-25T14:32:02.311Z,996.40
2019-02-25T14:33:02.647Z,996.38
2019-02-25T14:35:07.868Z,996.38
2019-02-25T14:36:07.126Z,996.43
2019-02-25T14:38:05.227Z,996.44
2019-02-25T14:39:02.246Z,996.45
2019-02-25T14:41:06.930Z,996.49
2019-02-25T14:42:06.788Z,996.47
2019-02-25T14:44:09.363Z,996.46
2019-02-25T14:45:09.675Z,996.42
2019-02-25T14:47:20.560Z,996.39
2019-02-25T14:48:18.159Z,996.38
2019-02-25T14:50:18.376Z,996.39
2019-02-25T14:51:18.615Z,996.36
2019-02-25T14:53:22.872Z,996.33
2019-02-25T14:54:24.510Z,996.31
2019-02-25T14:56:27.350Z,996.29
2019-02-25T14:57:28.832Z,996.27
2019-02-25T14:59:31.800Z,996.22
2019-02-25T15:00:35.017Z,996.17
2019-02-25T15:02:36.256Z,996.17
2019-02-25T15:03:36.509Z,996.16
2019-02-25T15:05:40.722Z,996.16
2019-02-25T15:06:40.992Z,996.10
2019-02-25T15:08:45.298Z,996.03
2019-02-25T15:09:45.795Z,995.96
2019-02-25T15:11:51.279Z,996.03
2019-02-25T15:12:53.925Z,996.08
2019-02-25T15:14:54.282Z,996.06
2019-02-25T15:15:54.534Z,996.08
2019-02-25T15:17:48.260Z,996.05
2019-02-25T15:18:47.968Z,996.06
2019-02-25T15:20:52.159Z,996.04
2019-02-25T15:21:54.200Z,996.10
2019-02-25T15:24:00.210Z,996.12
2019-02-25T15:24:57.101Z,996.10
2019-02-25T15:27:02.422Z,996.13
2019-02-25T15:28:01.386Z,996.14
2019-02-25T15:30:05.594Z,996.13
2019-02-25T15:31:06.958Z,996.18
2019-02-25T15:33:10.050Z,996.17
2019-02-25T15:34:10.980Z,996.16
2019-02-25T15:36:17.527Z,996.11
2019-02-25T15:37:14.745Z,996.13
2019-02-25T15:39:18.954Z,996.15
2019-02-25T15:40:21.025Z,996.13
2019-02-25T15:42:24.147Z,996.11
2019-02-25T15:43:25.451Z,996.14
2019-02-25T15:45:28.834Z,996.13
2019-02-25T15:46:28.874Z,996.12
2019-02-25T15:48:21.227Z,996.10
2019-02-25T15:49:22.290Z,996.07
2019-02-25T15:51:25.652Z,996.06
2019-02-25T15:52:27.567Z,996.10
2019-02-25T15:54:32.745Z,996.06
2019-02-25T15:55:30.357Z,996.10
2019-02-25T15:57:35.295Z,996.09
2019-02-25T15:58:34.786Z,996.13
2019-02-25T16:00:38.994Z,996.11
2019-02-25T16:01:39.241Z,996.09
2019-02-25T16:03:43.453Z,996.05
2019-02-25T16:04:43.700Z,996.08
2019-02-25T16:06:47.879Z,996.10
2019-02-25T16:07:49.735Z,996.08
2019-02-25T16:09:52.321Z,996.07
2019-02-25T16:10:53.396Z,996.08
2019-02-25T16:12:57.831Z,996.05
2019-02-25T16:13:57.968Z,996.02
2019-02-25T16:16:01.186Z,995.98
2019-02-25T16:17:01.436Z,995.97
2019-02-25T16:19:06.059Z,995.99
2019-02-25T16:20:06.743Z,995.97
2019-02-25T16:22:11.745Z,995.98
2019-02-25T16:23:10.337Z,995.96
2019-02-25T16:25:14.504Z,995.98
2019-02-25T16:26:16.045Z,995.96
2019-02-25T16:28:08.730Z,995.97
2019-02-25T16:29:09.104Z,995.91
2019-02-25T16:31:12.338Z,995.89
2019-02-25T16:32:12.534Z,995.94
2019-02-25T16:34:18.536Z,995.90
2019-02-25T16:35:17.271Z,995.96
2019-02-25T16:37:24.203Z,995.97
2019-02-25T16:38:24.849Z,995.97
2019-02-25T16:40:28.472Z,995.91
2019-02-25T16:41:29.922Z,995.91
2019-02-25T16:43:30.296Z,995.99
2019-02-25T16:44:30.539Z,995.96
2019-02-25T16:46:36.958Z,995.93
2019-02-25T16:47:37.539Z,995.90
2019-02-25T16:49:39.158Z,995.87
2019-02-25T16:50:41.545Z,995.91
2019-02-25T16:52:45.557Z,995.89
2019-02-25T16:53:45.349Z,995.88
2019-02-25T16:55:49.238Z,995.89
2019-02-25T16:56:48.244Z,995.90
2019-02-25T16:58:54.240Z,995.89
2019-02-25T16:59:53.750Z,995.92
2019-02-25T17:01:58.102Z,995.91
2019-02-25T17:02:59.304Z,995.91
2019-02-25T17:05:01.272Z,995.89
2019-02-25T17:06:02.432Z,995.86
2019-02-25T17:07:56.058Z,995.87
2019-02-25T17:08:55.685Z,995.84
2019-02-25T17:11:00.028Z,995.88
2019-02-25T17:12:00.101Z,995.87
2019-02-25T17:14:03.847Z,995.86
2019-02-25T17:15:03.672Z,995.86
2019-02-25T17:17:07.856Z,995.91
2019-02-25T17:18:08.102Z,995.89
2019-02-25T17:20:13.086Z,995.85
2019-02-25T17:21:12.515Z,995.85
2019-02-25T17:23:16.684Z,995.79
2019-02-25T17:24:16.920Z,995.81
2019-02-25T17:26:21.097Z,995.79
2019-02-25T17:27:21.341Z,995.80
2019-02-25T17:29:26.567Z,995.83
2019-02-25T17:30:25.743Z,995.79
2019-02-25T17:32:29.922Z,995.78
2019-02-25T17:33:30.927Z,995.79
2019-02-25T17:35:34.345Z,995.77
2019-02-25T17:36:34.587Z,995.81
2019-02-25T17:38:28.966Z,995.82
2019-02-25T17:39:29.484Z,995.82
2019-02-25T17:41:33.611Z,995.77
2019-02-25T17:42:33.589Z,995.82
2019-02-25T17:44:36.963Z,995.82
2019-02-25T17:45:38.576Z,995.85
2019-02-25T17:47:41.890Z,995.85
2019-02-25T17:48:41.149Z,995.85
2019-02-25T17:50:45.328Z,995.84
2019-02-25T17:51:45.587Z,995.86
2019-02-25T17:53:50.472Z,995.88
2019-02-25T17:54:49.972Z,995.89
2019-02-25T17:56:54.149Z,995.89
2019-02-25T17:57:56.366Z,995.88
2019-02-25T17:59:58.547Z,995.85
2019-02-25T18:01:00.629Z,995.87
2019-02-25T18:03:03.667Z,995.86
2019-02-25T18:04:04.487Z,995.89
2019-02-25T18:06:07.580Z,995.93
2019-02-25T18:07:07.654Z,995.93
2019-02-25T18:09:13.736Z,995.89
2019-02-25T18:10:12.048Z,995.88
2019-02-25T18:12:16.264Z,995.88
2019-02-25T18:13:16.507Z,995.88
2019-02-25T18:15:21.976Z,995.90
2019-02-25T18:16:20.901Z,995.90
2019-02-25T18:18:15.215Z,995.92
2019-02-25T18:19:15.816Z,995.91
2019-02-25T18:21:18.426Z,995.92
2019-02-25T18:22:18.663Z,995.94
2019-02-25T18:24:22.813Z,995.90
2019-02-25T18:25:23.053Z,995.89
2019-02-25T18:27:27.222Z,995.92
2019-02-25T18:28:27.459Z,995.98
2019-02-25T18:30:31.652Z,995.95
2019-02-25T18:31:31.883Z,995.94
2019-02-25T18:33:36.149Z,995.92
2019-02-25T18:34:37.062Z,995.91
2019-02-25T18:36:40.615Z,995.90
2019-02-25T18:37:41.852Z,995.95
2019-02-25T18:39:45.649Z,995.96
2019-02-25T18:40:46.226Z,995.97
2019-02-25T18:42:49.519Z,995.95
2019-02-25T18:43:51.322Z,995.91
2019-02-25T18:45:53.962Z,995.93
2019-02-25T18:46:54.227Z,995.93
2019-02-25T18:48:58.404Z,995.93
2019-02-25T18:49:59.275Z,995.93
2019-02-25T18:52:02.862Z,995.94
2019-02-25T18:53:03.110Z,995.97
2019-02-25T18:55:08.858Z,995.91
2019-02-25T18:56:09.601Z,995.93
2019-02-25T18:58:00.644Z,995.89
2019-02-25T18:59:08.782Z,995.91
2019-02-25T19:01:06.532Z,995.92